Hopeful Heights, Kentucky
Current Conditions -  °F | °C
As of 2:52 PM on Monday 22 Dec 2014 (Local Time) from KCVG Reporting Station
Broken Clouds Broken Clouds  
Wind Chill: 51°   Ceiling: 10000
Heat Index: 51°   Visibility: 10mi
Dew Point: 36°   Wind: 10mph
Humidity: 56%   Direction: 100°E
Pressure: 29.82"   Gusts: NA
Location:  38.997°N, 84.6517°W
Report Text: KCVG 221952Z 10009KT 10SM BKN100 11/02 A2982 RMK AO2 PRESFR SLP099 T01060022
Loading
Personal Weather Stations






























Interactive Weather Map New forecast layout! Learn more

10-Day Weather Forecast

Advertisements
Track Severe Weather on mobile